createdAt,value
2023-05-09T00:00:20.588Z,102311.30
2023-05-09T00:03:09.157Z,102311.59
2023-05-09T00:05:37.418Z,102310.32
2023-05-09T00:08:05.997Z,102311.33
2023-05-09T00:10:34.009Z,102305.23
2023-05-09T00:13:02.157Z,102310.11
2023-05-09T00:15:30.636Z,102309.76
2023-05-09T00:17:58.929Z,102309.23
2023-05-09T00:20:27.487Z,102309.70
2023-05-09T00:22:55.661Z,102308.41
2023-05-09T00:25:23.939Z,102308.56
2023-05-09T00:27:52.009Z,102305.09
2023-05-09T00:30:20.609Z,102306.07
2023-05-09T00:32:48.685Z,102310.36
2023-05-09T00:35:17.114Z,102310.42
2023-05-09T00:37:45.520Z,102312.75
2023-05-09T00:40:14.407Z,102318.43
2023-05-09T00:42:42.580Z,102318.44
2023-05-09T00:45:11.402Z,102315.64
2023-05-09T00:47:40.026Z,102310.70
2023-05-09T00:50:09.466Z,102309.71
2023-05-09T00:52:38.678Z,102306.13
2023-05-09T00:55:08.652Z,102306.39
2023-05-09T00:57:37.055Z,102307.15
2023-05-09T01:00:06.458Z,102306.09
2023-05-09T01:02:34.779Z,102305.86
2023-05-09T01:05:03.216Z,102307.17
2023-05-09T01:07:43.984Z,102306.34
2023-05-09T01:10:22.297Z,102307.47
2023-05-09T01:13:05.183Z,102308.65
2023-05-09T01:16:15.727Z,102316.28
2023-05-09T01:18:51.746Z,102317.49
2023-05-09T01:21:29.485Z,102315.83
2023-05-09T01:24:32.787Z,102315.85
2023-05-09T01:27:07.275Z,102319.73
2023-05-09T01:29:42.500Z,102316.79
2023-05-09T01:32:19.392Z,102320.21
2023-05-09T01:34:50.097Z,102318.40
2023-05-09T01:37:22.605Z,102314.45
2023-05-09T01:39:54.033Z,102313.98
2023-05-09T01:42:25.258Z,102313.36
2023-05-09T01:44:54.994Z,102307.39
2023-05-09T01:47:23.809Z,102308.05
2023-05-09T01:49:53.419Z,102303.95
2023-05-09T01:52:23.289Z,102298.83
2023-05-09T01:54:52.133Z,102300.04
2023-05-09T01:57:22.086Z,102301.13
2023-05-09T01:59:51.645Z,102296.27
2023-05-09T02:02:20.239Z,102294.75
2023-05-09T02:04:50.133Z,102298.14
2023-05-09T02:07:18.694Z,102295.90
2023-05-09T02:09:48.515Z,102297.34
2023-05-09T02:12:17.095Z,102295.05
2023-05-09T02:14:45.170Z,102298.54
2023-05-09T02:17:17.143Z,102298.92
2023-05-09T02:19:45.834Z,102298.48
2023-05-09T02:22:15.721Z,102302.51
2023-05-09T02:24:47.662Z,102302.69
2023-05-09T02:27:16.178Z,102303.40
2023-05-09T02:29:48.347Z,102300.79
2023-05-09T02:32:22.277Z,102302.87
2023-05-09T02:34:53.299Z,102299.07
2023-05-09T02:37:22.454Z,102300.02
2023-05-09T02:39:50.866Z,102301.45
2023-05-09T02:42:25.333Z,102300.20
2023-05-09T02:44:54.595Z,102306.41
2023-05-09T02:47:23.438Z,102304.66
2023-05-09T02:49:51.758Z,102301.21
2023-05-09T02:52:20.038Z,102299.35
2023-05-09T02:54:48.648Z,102302.69
2023-05-09T02:57:16.999Z,102300.61
2023-05-09T02:59:45.174Z,102300.40
2023-05-09T03:02:13.216Z,102303.00
2023-05-09T03:04:42.143Z,102302.30
2023-05-09T03:07:10.300Z,102303.20
2023-05-09T03:09:39.284Z,102304.31
2023-05-09T03:12:09.522Z,102310.10
2023-05-09T03:14:37.708Z,102313.10
2023-05-09T03:17:05.774Z,102313.10
2023-05-09T03:19:36.302Z,102318.13
2023-05-09T03:22:04.471Z,102320.52
2023-05-09T03:24:34.868Z,102324.19
2023-05-09T03:27:03.800Z,102329.75
2023-05-09T03:29:32.073Z,102333.90
2023-05-09T03:32:00.448Z,102331.59
2023-05-09T03:34:28.534Z,102333.80
2023-05-09T03:36:57.000Z,102338.61
2023-05-09T03:39:25.996Z,102337.89
2023-05-09T03:41:57.041Z,102340.14
2023-05-09T03:44:26.236Z,102343.81
2023-05-09T03:46:54.500Z,102346.27
2023-05-09T03:49:23.325Z,102351.37
2023-05-09T03:51:54.235Z,102353.41
2023-05-09T03:54:22.630Z,102360.90
2023-05-09T03:56:52.123Z,102362.38
2023-05-09T03:59:21.015Z,102369.81
2023-05-09T04:01:49.149Z,102368.93
2023-05-09T04:04:18.304Z,102368.74
2023-05-09T04:06:47.180Z,102369.77
2023-05-09T04:09:16.691Z,102366.43
2023-05-09T04:11:44.856Z,102367.16
2023-05-09T04:14:13.337Z,102369.83
2023-05-09T04:16:42.741Z,102374.38
2023-05-09T04:19:11.139Z,102375.03
2023-05-09T04:21:39.720Z,102376.41
2023-05-09T04:24:08.286Z,102380.21
2023-05-09T04:26:40.564Z,102388.59
2023-05-09T04:29:10.574Z,102387.57
2023-05-09T04:31:38.816Z,102385.91
2023-05-09T04:34:08.080Z,102385.61
2023-05-09T04:36:37.045Z,102384.31
2023-05-09T04:39:05.535Z,102387.31
2023-05-09T04:41:34.273Z,102385.98
2023-05-09T04:44:03.510Z,102392.64
2023-05-09T04:46:31.825Z,102393.52
2023-05-09T04:49:00.066Z,102395.35
2023-05-09T04:51:28.172Z,102394.98
2023-05-09T04:53:56.310Z,102391.21
2023-05-09T04:56:28.572Z,102391.77
2023-05-09T04:58:56.704Z,102387.79
2023-05-09T05:01:25.138Z,102388.35
2023-05-09T05:03:53.615Z,102393.80
2023-05-09T05:06:21.896Z,102391.77
2023-05-09T05:08:50.065Z,102390.45
2023-05-09T05:11:18.752Z,102393.81
2023-05-09T05:13:47.170Z,102388.78
2023-05-09T05:16:16.181Z,102388.27
2023-05-09T05:18:45.626Z,102387.41
2023-05-09T05:21:16.157Z,102386.73
2023-05-09T05:23:44.858Z,102390.61
2023-05-09T05:26:14.403Z,102393.23
2023-05-09T05:28:43.221Z,102397.59
2023-05-09T05:31:12.057Z,102397.25
2023-05-09T05:33:40.718Z,102396.91
2023-05-09T05:36:09.600Z,102398.92
2023-05-09T05:38:37.900Z,102405.75
2023-05-09T05:41:06.575Z,102400.15
2023-05-09T05:43:34.943Z,102402.61
2023-05-09T05:46:03.163Z,102410.83
2023-05-09T05:48:31.604Z,102409.23
2023-05-09T05:51:00.282Z,102410.95
2023-05-09T05:53:32.633Z,102406.15
2023-05-09T05:56:01.757Z,102402.44
2023-05-09T05:58:30.644Z,102407.27
2023-05-09T06:00:59.160Z,102412.89
2023-05-09T06:03:27.589Z,102415.13
2023-05-09T06:05:59.570Z,102420.48
2023-05-09T06:08:27.745Z,102421.95
2023-05-09T06:10:55.823Z,102421.65
2023-05-09T06:13:24.137Z,102426.11
2023-05-09T06:16:01.965Z,102426.33
2023-05-09T06:18:40.402Z,102423.94
2023-05-09T06:21:08.685Z,102424.09
2023-05-09T06:23:38.066Z,102424.59
2023-05-09T06:26:08.612Z,102423.77
2023-05-09T06:28:37.411Z,102423.27
2023-05-09T06:31:06.113Z,102421.27
2023-05-09T06:33:34.370Z,102420.94
2023-05-09T06:36:02.554Z,102422.11
2023-05-09T06:38:30.719Z,102425.89
2023-05-09T06:40:58.895Z,102427.86
2023-05-09T06:43:27.474Z,102431.39
2023-05-09T06:45:55.776Z,102437.37
2023-05-09T06:48:24.329Z,102432.25
2023-05-09T06:50:52.428Z,102432.56
2023-05-09T06:53:20.795Z,102431.85
2023-05-09T06:55:48.996Z,102429.39
2023-05-09T06:58:17.446Z,102428.27
2023-05-09T07:00:45.622Z,102426.05
2023-05-09T07:03:13.900Z,102419.84
2023-05-09T07:05:42.175Z,102421.13
2023-05-09T07:08:10.551Z,102419.86
2023-05-09T07:10:41.512Z,102418.48
2023-05-09T07:13:09.882Z,102418.88
2023-05-09T07:15:42.035Z,102419.26
2023-05-09T07:18:10.928Z,102417.00
2023-05-09T07:20:39.010Z,102420.54
2023-05-09T07:23:07.282Z,102427.05
2023-05-09T07:25:35.449Z,102432.86
2023-05-09T07:28:03.630Z,102433.92
2023-05-09T07:30:31.809Z,102433.55
2023-05-09T07:33:00.016Z,102442.73
2023-05-09T07:35:28.145Z,102445.50
2023-05-09T07:37:56.422Z,102446.27
2023-05-09T07:40:24.494Z,102444.69
2023-05-09T07:42:55.456Z,102448.74
2023-05-09T07:45:24.835Z,102446.65
2023-05-09T07:47:53.056Z,102438.93
2023-05-09T07:50:21.393Z,102435.05
2023-05-09T07:52:49.773Z,102431.23
2023-05-09T07:55:18.009Z,102428.10
2023-05-09T07:57:46.847Z,102429.82
2023-05-09T08:00:16.636Z,102427.79
2023-05-09T08:02:44.894Z,102423.63
2023-05-09T08:05:14.008Z,102427.20
2023-05-09T08:07:42.334Z,102428.80
2023-05-09T08:10:10.992Z,102426.93
2023-05-09T08:12:39.864Z,102430.26
2023-05-09T08:15:09.434Z,102430.58
2023-05-09T08:17:37.481Z,102428.91
2023-05-09T08:20:07.448Z,102433.81
2023-05-09T08:22:35.748Z,102424.88
2023-05-09T08:25:04.025Z,102414.54
2023-05-09T08:27:32.027Z,102411.49
2023-05-09T08:30:00.080Z,102419.19
2023-05-09T08:32:28.159Z,102424.50
2023-05-09T08:34:56.192Z,102420.36
2023-05-09T08:37:24.793Z,102430.28
2023-05-09T08:39:52.980Z,102425.98
2023-05-09T08:42:25.496Z,102430.59
2023-05-09T08:44:54.444Z,102436.73
2023-05-09T08:47:24.044Z,102436.73
2023-05-09T08:49:54.139Z,102437.73
2023-05-09T08:52:22.797Z,102434.89
2023-05-09T08:54:51.841Z,102434.05
2023-05-09T08:57:19.912Z,102437.65
2023-05-09T08:59:49.588Z,102438.98
2023-05-09T09:02:18.207Z,102435.55
2023-05-09T09:04:47.020Z,102443.86
2023-05-09T09:07:16.411Z,102439.93
2023-05-09T09:09:47.442Z,102441.89
2023-05-09T09:12:16.796Z,102438.30
2023-05-09T09:14:52.909Z,102441.61
2023-05-09T09:17:23.829Z,102438.62
2023-05-09T09:19:55.713Z,102441.34
2023-05-09T09:22:25.248Z,102438.69
2023-05-09T09:24:53.690Z,102436.77
2023-05-09T09:27:21.756Z,102439.90
2023-05-09T09:29:49.837Z,102443.65
2023-05-09T09:32:19.791Z,102441.98
2023-05-09T09:34:51.200Z,102439.18
2023-05-09T09:37:23.576Z,102437.73
2023-05-09T09:39:56.259Z,102436.63
2023-05-09T09:42:24.321Z,102434.11
2023-05-09T09:45:10.961Z,102434.05
2023-05-09T09:47:39.646Z,102441.00
2023-05-09T09:50:16.213Z,102443.61
2023-05-09T09:52:50.457Z,102445.83
2023-05-09T09:55:19.813Z,102448.02
2023-05-09T09:57:48.659Z,102450.42
2023-05-09T10:00:19.302Z,102455.48
2023-05-09T10:02:55.923Z,102456.33
2023-05-09T10:05:31.481Z,102453.80
2023-05-09T10:08:04.428Z,102454.02
2023-05-09T10:10:34.657Z,102452.23
2023-05-09T10:13:10.363Z,102451.73
2023-05-09T10:15:52.426Z,102452.36
2023-05-09T10:18:27.998Z,102453.81
2023-05-09T10:20:57.670Z,102456.66
2023-05-09T10:23:26.036Z,102457.39
2023-05-09T10:25:58.720Z,102453.73
2023-05-09T10:28:32.555Z,102456.03
2023-05-09T10:31:28.022Z,102453.23
2023-05-09T10:33:56.677Z,102454.46
2023-05-09T10:36:25.265Z,102454.58
2023-05-09T10:38:55.413Z,102456.33
2023-05-09T10:41:24.345Z,102458.02
2023-05-09T10:43:53.104Z,102455.71
2023-05-09T10:46:23.480Z,102453.29
2023-05-09T10:48:52.730Z,102452.27
2023-05-09T10:51:21.826Z,102447.04
2023-05-09T10:53:51.738Z,102447.31
2023-05-09T10:56:31.920Z,102450.39
2023-05-09T10:59:00.990Z,102452.00
2023-05-09T11:01:39.324Z,102448.63
2023-05-09T11:04:13.022Z,102444.40
2023-05-09T11:06:41.920Z,102441.83
2023-05-09T11:09:38.916Z,102441.55
2023-05-09T11:12:15.598Z,102448.08
2023-05-09T11:14:46.580Z,102438.73
2023-05-09T11:17:36.776Z,102439.45
2023-05-09T11:20:06.805Z,102440.92
2023-05-09T11:22:41.509Z,102446.32
2023-05-09T11:25:13.395Z,102450.27
2023-05-09T11:27:46.999Z,102451.91
2023-05-09T11:30:19.681Z,102456.81
2023-05-09T11:32:55.234Z,102461.94
2023-05-09T11:35:26.490Z,102465.30
2023-05-09T11:38:06.192Z,102463.84
2023-05-09T11:40:35.185Z,102461.71
2023-05-09T11:43:03.563Z,102462.09
2023-05-09T11:45:33.542Z,102459.52
2023-05-09T11:48:03.474Z,102461.21
2023-05-09T11:50:32.292Z,102458.92
2023-05-09T11:53:00.652Z,102456.45
2023-05-09T11:55:32.824Z,102455.63
2023-05-09T11:58:01.647Z,102456.75
2023-05-09T12:00:32.037Z,102458.85
2023-05-09T12:03:00.432Z,102454.48
2023-05-09T12:05:28.794Z,102451.52
2023-05-09T12:08:04.654Z,102450.52
2023-05-09T12:10:36.715Z,102453.18
2023-05-09T12:13:05.064Z,102444.58
2023-05-09T12:15:39.372Z,102441.23
2023-05-09T12:18:08.791Z,102439.19
2023-05-09T12:20:50.473Z,102434.83
2023-05-09T12:23:19.226Z,102440.69
2023-05-09T12:25:58.010Z,102437.42
2023-05-09T12:28:27.524Z,102437.65
2023-05-09T12:30:56.529Z,102435.73
2023-05-09T12:33:25.505Z,102433.52
2023-05-09T12:36:11.354Z,102426.95
2023-05-09T12:38:40.218Z,102430.27
2023-05-09T12:41:18.893Z,102424.53
2023-05-09T12:43:58.305Z,102421.13
2023-05-09T12:46:26.568Z,102418.72
2023-05-09T12:48:54.684Z,102418.55
2023-05-09T12:51:23.593Z,102410.70
2023-05-09T12:53:52.594Z,102415.47
2023-05-09T12:56:23.031Z,102413.58
2023-05-09T12:58:53.594Z,102414.54
2023-05-09T13:01:27.898Z,102412.02
2023-05-09T13:04:06.841Z,102404.99
2023-05-09T13:06:36.418Z,102400.37
2023-05-09T13:09:09.372Z,102399.10
2023-05-09T13:11:38.070Z,102398.77
2023-05-09T13:14:06.332Z,102397.66
2023-05-09T13:16:35.357Z,102394.20
2023-05-09T13:19:05.454Z,102389.46
2023-05-09T13:21:34.547Z,102389.89
2023-05-09T13:24:06.208Z,102391.84
2023-05-09T13:26:34.581Z,102388.98
2023-05-09T13:29:02.901Z,102385.92
2023-05-09T13:31:31.647Z,102384.40
2023-05-09T13:33:59.721Z,102383.99
2023-05-09T13:36:27.989Z,102379.02
2023-05-09T13:38:56.063Z,102379.45
2023-05-09T13:41:24.756Z,102380.79
2023-05-09T13:43:52.931Z,102383.77
2023-05-09T13:46:21.201Z,102387.22
2023-05-09T13:48:49.584Z,102385.26
2023-05-09T13:51:17.859Z,102385.98
2023-05-09T13:53:46.548Z,102387.05
2023-05-09T13:56:14.728Z,102389.13
2023-05-09T13:58:43.109Z,102392.86
2023-05-09T14:01:11.530Z,102394.52
2023-05-09T14:03:39.775Z,102395.41
2023-05-09T14:06:09.505Z,102392.02
2023-05-09T14:08:37.841Z,102388.95
2023-05-09T14:11:07.651Z,102389.21
2023-05-09T14:13:35.725Z,102392.83
2023-05-09T14:16:05.343Z,102391.47
2023-05-09T14:18:33.502Z,102387.90
2023-05-09T14:21:02.096Z,102383.94
2023-05-09T14:23:30.366Z,102388.38
2023-05-09T14:25:58.749Z,102390.48
2023-05-09T14:28:27.020Z,102385.85
2023-05-09T14:30:55.198Z,102385.41
2023-05-09T14:33:23.887Z,102383.43
2023-05-09T14:35:51.960Z,102381.05
2023-05-09T14:38:21.461Z,102385.55
2023-05-09T14:40:49.688Z,102380.98
2023-05-09T14:43:17.921Z,102374.73
2023-05-09T14:45:46.112Z,102375.48
2023-05-09T14:48:16.170Z,102374.28
2023-05-09T14:50:44.696Z,102371.97
2023-05-09T14:53:13.371Z,102372.76
2023-05-09T14:55:41.966Z,102374.42
2023-05-09T14:58:10.030Z,102373.95
2023-05-09T15:00:38.306Z,102369.36
2023-05-09T15:03:06.540Z,102374.05
2023-05-09T15:05:34.697Z,102373.42
2023-05-09T15:08:03.037Z,102374.83
2023-05-09T15:10:32.029Z,102376.70
2023-05-09T15:13:00.883Z,102380.17
2023-05-09T15:15:28.988Z,102380.23
2023-05-09T15:17:57.787Z,102384.86
2023-05-09T15:20:25.967Z,102390.64
2023-05-09T15:22:54.159Z,102394.79
2023-05-09T15:25:23.630Z,102399.58
2023-05-09T15:27:51.598Z,102398.91
2023-05-09T15:30:20.208Z,102393.39
2023-05-09T15:32:48.394Z,102395.70
2023-05-09T15:35:18.392Z,102400.59
2023-05-09T15:37:46.751Z,102396.75
2023-05-09T15:40:15.230Z,102398.53
2023-05-09T15:42:43.718Z,102403.08
2023-05-09T15:45:12.548Z,102409.23
2023-05-09T15:47:41.050Z,102406.95
2023-05-09T15:50:10.115Z,102401.35
2023-05-09T15:52:38.257Z,102406.08
2023-05-09T15:55:07.303Z,102408.36
2023-05-09T15:57:35.538Z,102406.63
2023-05-09T16:00:05.654Z,102405.58
2023-05-09T16:02:42.275Z,102408.91
2023-05-09T16:05:11.236Z,102409.96
2023-05-09T16:07:43.129Z,102409.96
2023-05-09T16:10:11.663Z,102412.05
2023-05-09T16:12:40.618Z,102411.70
2023-05-09T16:15:09.919Z,102415.37
2023-05-09T16:17:38.136Z,102416.26
2023-05-09T16:20:07.240Z,102416.96
2023-05-09T16:22:35.291Z,102415.73
2023-05-09T16:25:03.470Z,102412.94
2023-05-09T16:27:31.644Z,102411.36
2023-05-09T16:29:59.948Z,102414.16
2023-05-09T16:32:28.107Z,102411.89
2023-05-09T16:34:56.163Z,102412.05
2023-05-09T16:37:24.643Z,102409.95
2023-05-09T16:39:52.920Z,102410.78
2023-05-09T16:42:21.094Z,102409.55
2023-05-09T16:44:49.686Z,102406.06
2023-05-09T16:47:17.930Z,102409.90
2023-05-09T16:49:46.640Z,102412.52
2023-05-09T16:52:15.528Z,102409.70
2023-05-09T16:54:43.702Z,102413.89
2023-05-09T16:57:12.099Z,102419.11
2023-05-09T16:59:40.257Z,102421.20
2023-05-09T17:02:09.051Z,102421.69
2023-05-09T17:04:37.912Z,102423.61
2023-05-09T17:07:06.212Z,102430.37
2023-05-09T17:09:34.385Z,102433.82
2023-05-09T17:12:02.772Z,102439.02
2023-05-09T17:14:31.054Z,102435.48
2023-05-09T17:16:59.412Z,102433.54
2023-05-09T17:19:27.598Z,102433.86
2023-05-09T17:21:58.632Z,102430.34
2023-05-09T17:24:27.435Z,102431.85
2023-05-09T17:26:56.750Z,102431.76
2023-05-09T17:29:29.524Z,102432.89
2023-05-09T17:32:01.697Z,102437.02
2023-05-09T17:34:30.062Z,102438.04
2023-05-09T17:36:58.859Z,102439.05
2023-05-09T17:39:27.321Z,102441.27
2023-05-09T17:41:55.407Z,102439.68
2023-05-09T17:44:24.185Z,102443.88
2023-05-09T17:46:52.460Z,102447.21
2023-05-09T17:49:20.645Z,102447.91
2023-05-09T17:51:49.639Z,102447.23
2023-05-09T17:54:19.289Z,102448.84
2023-05-09T17:56:51.218Z,102445.16
2023-05-09T18:11:18.401Z,102457.11
2023-05-09T18:13:46.672Z,102469.26
2023-05-09T18:16:14.984Z,102470.42
2023-05-09T18:18:44.920Z,102471.77
2023-05-09T18:21:13.251Z,102477.80
2023-05-09T18:23:42.033Z,102475.94
2023-05-09T18:26:11.018Z,102476.92
2023-05-09T18:28:40.113Z,102477.90
2023-05-09T18:31:10.177Z,102477.64
2023-05-09T18:33:39.559Z,102481.23
2023-05-09T18:36:10.276Z,102483.27
2023-05-09T18:38:39.885Z,102481.80
2023-05-09T18:41:08.780Z,102483.98
2023-05-09T18:43:39.126Z,102488.05
2023-05-09T18:46:08.194Z,102490.54
2023-05-09T18:48:36.482Z,102488.36
2023-05-09T18:51:06.197Z,102485.13
2023-05-09T18:53:34.976Z,102484.55
2023-05-09T18:56:03.364Z,102480.52
2023-05-09T18:58:32.358Z,102478.90
2023-05-09T19:01:01.527Z,102482.13
2023-05-09T19:03:29.813Z,102480.65
2023-05-09T19:05:59.907Z,102480.73
2023-05-09T19:08:29.337Z,102480.31
2023-05-09T19:10:57.432Z,102484.42
2023-05-09T19:13:25.678Z,102489.08
2023-05-09T19:15:53.970Z,102485.61
2023-05-09T19:18:22.139Z,102487.48
2023-05-09T19:20:50.300Z,102488.05
2023-05-09T19:23:18.483Z,102484.45
2023-05-09T19:25:46.781Z,102481.39
2023-05-09T19:28:14.935Z,102479.75
2023-05-09T19:30:43.009Z,102480.02
2023-05-09T19:33:11.690Z,102479.38
2023-05-09T19:35:41.606Z,102480.45
2023-05-09T19:38:12.075Z,102476.73
2023-05-09T19:40:41.284Z,102478.73
2023-05-09T19:43:09.405Z,102485.35
2023-05-09T19:45:37.483Z,102483.43
2023-05-09T19:48:06.271Z,102480.70
2023-05-09T19:50:34.442Z,102485.61
2023-05-09T19:53:02.617Z,102483.39
2023-05-09T19:55:30.913Z,102479.28
2023-05-09T19:57:59.375Z,102475.89
2023-05-09T20:00:28.063Z,102477.56
2023-05-09T20:02:56.176Z,102481.42
2023-05-09T20:05:24.617Z,102482.45
2023-05-09T20:07:53.296Z,102480.73
2023-05-09T20:10:21.681Z,102478.50
2023-05-09T20:12:49.831Z,102479.58
2023-05-09T20:15:17.934Z,102478.52
2023-05-09T20:17:47.289Z,102473.98
2023-05-09T20:20:16.677Z,102474.16
2023-05-09T20:22:44.898Z,102474.96
2023-05-09T20:25:13.808Z,102476.55
2023-05-09T20:27:41.863Z,102475.27
2023-05-09T20:30:10.961Z,102475.61
2023-05-09T20:32:39.061Z,102474.10
2023-05-09T20:35:07.818Z,102476.42
2023-05-09T20:37:36.719Z,102475.05
2023-05-09T20:40:06.668Z,102472.55
2023-05-09T20:42:35.195Z,102472.90
2023-05-09T20:45:04.006Z,102473.52
2023-05-09T20:47:32.089Z,102477.27
2023-05-09T20:50:00.857Z,102477.48
2023-05-09T20:52:29.031Z,102471.12
2023-05-09T20:54:59.259Z,102473.63
2023-05-09T20:57:27.429Z,102473.51
2023-05-09T20:59:55.509Z,102468.52
2023-05-09T21:02:23.652Z,102468.20
2023-05-09T21:04:51.848Z,102464.70
2023-05-09T21:07:20.124Z,102467.91
2023-05-09T21:09:48.308Z,102471.30
2023-05-09T21:12:17.324Z,102472.02
2023-05-09T21:14:45.575Z,102468.39
2023-05-09T21:17:13.714Z,102469.08
2023-05-09T21:19:41.922Z,102472.24
2023-05-09T21:22:10.113Z,102469.96
2023-05-09T21:24:38.160Z,102470.59
2023-05-09T21:27:06.444Z,102470.80
2023-05-09T21:29:34.518Z,102470.79
2023-05-09T21:32:02.704Z,102470.66
2023-05-09T21:34:30.757Z,102466.32
2023-05-09T21:36:59.140Z,102464.98
2023-05-09T21:39:27.207Z,102465.58
2023-05-09T21:41:55.492Z,102466.77
2023-05-09T21:44:23.656Z,102464.45
2023-05-09T21:46:51.805Z,102462.52
2023-05-09T21:49:21.663Z,102457.10
2023-05-09T21:51:49.921Z,102455.99
2023-05-09T21:54:18.194Z,102453.15
2023-05-09T21:56:46.776Z,102454.48
2023-05-09T21:59:14.954Z,102450.67
2023-05-09T22:01:45.649Z,102442.97
2023-05-09T22:04:14.171Z,102438.48
2023-05-09T22:06:42.962Z,102438.66
2023-05-09T22:09:11.236Z,102436.33
2023-05-09T22:11:40.023Z,102432.30
2023-05-09T22:14:10.438Z,102430.83
2023-05-09T22:16:38.818Z,102427.05
2023-05-09T22:19:07.108Z,102421.45
2023-05-09T22:21:35.284Z,102418.55
2023-05-09T22:24:03.860Z,102415.21
2023-05-09T22:26:31.930Z,102414.63
2023-05-09T22:29:03.920Z,102411.39
2023-05-09T22:31:32.813Z,102406.87
2023-05-09T22:34:03.828Z,102408.39
2023-05-09T22:36:32.535Z,102408.00
2023-05-09T22:39:01.104Z,102407.09
2023-05-09T22:41:29.161Z,102403.33
2023-05-09T22:43:57.570Z,102402.61
2023-05-09T22:46:26.016Z,102400.12
2023-05-09T22:48:54.201Z,102396.86
2023-05-09T22:51:22.885Z,102398.50
2023-05-09T22:53:51.477Z,102396.16
2023-05-09T22:56:19.544Z,102391.74
2023-05-09T22:58:47.729Z,102392.08
2023-05-09T23:01:16.260Z,102388.14
2023-05-09T23:03:44.470Z,102390.55
2023-05-09T23:06:12.758Z,102386.54
2023-05-09T23:08:40.977Z,102387.16
2023-05-09T23:11:09.534Z,102382.79
2023-05-09T23:13:38.204Z,102383.77
2023-05-09T23:16:06.712Z,102382.98
2023-05-09T23:18:34.871Z,102377.54
2023-05-09T23:21:03.031Z,102375.84
2023-05-09T23:23:31.220Z,102373.85
2023-05-09T23:25:59.477Z,102373.23
2023-05-09T23:28:27.675Z,102371.17
2023-05-09T23:30:55.965Z,102367.42
2023-05-09T23:33:23.992Z,102364.73
2023-05-09T23:35:52.283Z,102367.57
2023-05-09T23:38:20.672Z,102366.46
2023-05-09T23:40:48.834Z,102367.16
2023-05-09T23:43:18.244Z,102366.41
2023-05-09T23:45:46.407Z,102369.30
2023-05-09T23:48:14.485Z,102368.53
2023-05-09T23:50:42.557Z,102363.84
2023-05-09T23:53:10.936Z,102359.15
2023-05-09T23:55:39.000Z,102354.52
2023-05-09T23:58:07.179Z,102356.25
